sensor_id;sensor_type;location;lat;lon;timestamp;P1;durP1;ratioP1;P2;durP2;ratioP2
71648;SDS011;59492;45.638;11.714;2023-03-07T00:01:04;14.50;;;10.90;;
71648;SDS011;59492;45.638;11.714;2023-03-07T00:03:30;15.30;;;11.20;;
71648;SDS011;59492;45.638;11.714;2023-03-07T00:06:00;14.70;;;11.20;;
71648;SDS011;59492;45.638;11.714;2023-03-07T00:08:26;16.10;;;11.50;;
71648;SDS011;59492;45.638;11.714;2023-03-07T00:10:52;19.90;;;12.20;;
71648;SDS011;59492;45.638;11.714;2023-03-07T00:13:28;15.70;;;12.40;;
71648;SDS011;59492;45.638;11.714;2023-03-07T00:15:59;15.10;;;12.10;;
71648;SDS011;59492;45.638;11.714;2023-03-07T00:18:29;16.70;;;12.30;;
71648;SDS011;59492;45.638;11.714;2023-03-07T00:20:56;17.00;;;11.30;;
71648;SDS011;59492;45.638;11.714;2023-03-07T00:23:23;18.50;;;12.20;;
71648;SDS011;59492;45.638;11.714;2023-03-07T00:25:59;18.40;;;11.60;;
71648;SDS011;59492;45.638;11.714;2023-03-07T00:28:27;16.10;;;11.50;;
71648;SDS011;59492;45.638;11.714;2023-03-07T00:30:57;19.20;;;12.00;;
71648;SDS011;59492;45.638;11.714;2023-03-07T00:33:24;15.10;;;11.40;;
71648;SDS011;59492;45.638;11.714;2023-03-07T00:36:01;15.50;;;12.50;;
71648;SDS011;59492;45.638;11.714;2023-03-07T00:38:31;19.20;;;11.90;;
71648;SDS011;59492;45.638;11.714;2023-03-07T00:41:07;15.60;;;12.10;;
71648;SDS011;59492;45.638;11.714;2023-03-07T00:43:35;17.90;;;12.40;;
71648;SDS011;59492;45.638;11.714;2023-03-07T00:46:02;16.10;;;11.00;;
71648;SDS011;59492;45.638;11.714;2023-03-07T00:48:29;17.60;;;11.90;;
71648;SDS011;59492;45.638;11.714;2023-03-07T00:50:57;19.20;;;12.60;;
71648;SDS011;59492;45.638;11.714;2023-03-07T00:53:23;16.10;;;12.30;;
71648;SDS011;59492;45.638;11.714;2023-03-07T00:56:08;14.90;;;11.60;;
71648;SDS011;59492;45.638;11.714;2023-03-07T00:58:41;17.50;;;12.70;;
71648;SDS011;59492;45.638;11.714;2023-03-07T01:01:07;16.10;;;12.30;;
71648;SDS011;59492;45.638;11.714;2023-03-07T01:03:34;14.10;;;11.50;;
71648;SDS011;59492;45.638;11.714;2023-03-07T01:06:03;16.80;;;12.30;;
71648;SDS011;59492;45.638;11.714;2023-03-07T01:08:30;14.90;;;12.00;;
71648;SDS011;59492;45.638;11.714;2023-03-07T01:11:03;15.90;;;12.20;;
71648;SDS011;59492;45.638;11.714;2023-03-07T01:13:30;15.20;;;12.30;;
71648;SDS011;59492;45.638;11.714;2023-03-07T01:16:16;16.00;;;12.10;;
71648;SDS011;59492;45.638;11.714;2023-03-07T01:18:53;14.10;;;11.90;;
71648;SDS011;59492;45.638;11.714;2023-03-07T01:21:24;15.90;;;11.90;;
71648;SDS011;59492;45.638;11.714;2023-03-07T01:23:50;18.90;;;12.80;;
71648;SDS011;59492;45.638;11.714;2023-03-07T01:26:17;16.80;;;12.20;;
71648;SDS011;59492;45.638;11.714;2023-03-07T01:28:45;18.40;;;12.20;;
71648;SDS011;59492;45.638;11.714;2023-03-07T01:31:13;14.80;;;11.40;;
71648;SDS011;59492;45.638;11.714;2023-03-07T01:33:39;15.50;;;11.90;;
71648;SDS011;59492;45.638;11.714;2023-03-07T01:36:04;13.30;;;11.10;;
71648;SDS011;59492;45.638;11.714;2023-03-07T01:38:42;12.60;;;10.90;;
71648;SDS011;59492;45.638;11.714;2023-03-07T01:41:07;16.80;;;12.30;;
71648;SDS011;59492;45.638;11.714;2023-03-07T01:43:33;16.80;;;12.20;;
71648;SDS011;59492;45.638;11.714;2023-03-07T01:51:12;14.60;;;11.50;;
71648;SDS011;59492;45.638;11.714;2023-03-07T01:53:37;14.40;;;12.10;;
71648;SDS011;59492;45.638;11.714;2023-03-07T01:56:03;13.90;;;11.70;;
71648;SDS011;59492;45.638;11.714;2023-03-07T01:58:31;15.60;;;11.70;;
71648;SDS011;59492;45.638;11.714;2023-03-07T02:00:58;16.50;;;12.20;;
71648;SDS011;59492;45.638;11.714;2023-03-07T02:03:25;17.70;;;13.00;;
71648;SDS011;59492;45.638;11.714;2023-03-07T02:06:00;14.60;;;11.70;;
71648;SDS011;59492;45.638;11.714;2023-03-07T02:08:29;14.60;;;11.70;;
71648;SDS011;59492;45.638;11.714;2023-03-07T02:10:57;16.10;;;11.90;;
71648;SDS011;59492;45.638;11.714;2023-03-07T02:13:22;16.00;;;12.80;;
71648;SDS011;59492;45.638;11.714;2023-03-07T02:15:48;15.30;;;12.10;;
71648;SDS011;59492;45.638;11.714;2023-03-07T02:18:20;15.00;;;11.90;;
71648;SDS011;59492;45.638;11.714;2023-03-07T02:29:15;15.60;;;12.00;;
71648;SDS011;59492;45.638;11.714;2023-03-07T02:31:41;16.70;;;13.10;;
71648;SDS011;59492;45.638;11.714;2023-03-07T02:34:20;15.60;;;12.60;;
71648;SDS011;59492;45.638;11.714;2023-03-07T02:36:52;16.50;;;12.10;;
71648;SDS011;59492;45.638;11.714;2023-03-07T02:39:23;15.10;;;12.10;;
71648;SDS011;59492;45.638;11.714;2023-03-07T02:41:53;13.70;;;12.10;;
71648;SDS011;59492;45.638;11.714;2023-03-07T02:44:20;15.00;;;12.00;;
71648;SDS011;59492;45.638;11.714;2023-03-07T02:46:46;14.70;;;12.50;;
71648;SDS011;59492;45.638;11.714;2023-03-07T02:49:11;14.60;;;12.70;;
71648;SDS011;59492;45.638;11.714;2023-03-07T02:51:38;15.00;;;12.40;;
71648;SDS011;59492;45.638;11.714;2023-03-07T02:54:04;15.90;;;12.10;;
71648;SDS011;59492;45.638;11.714;2023-03-07T02:56:29;15.40;;;12.50;;
71648;SDS011;59492;45.638;11.714;2023-03-07T02:58:55;14.40;;;12.40;;
71648;SDS011;59492;45.638;11.714;2023-03-07T03:01:21;15.00;;;12.10;;
71648;SDS011;59492;45.638;11.714;2023-03-07T03:03:47;15.60;;;11.90;;
71648;SDS011;59492;45.638;11.714;2023-03-07T03:06:12;15.90;;;12.40;;
71648;SDS011;59492;45.638;11.714;2023-03-07T03:08:38;14.30;;;11.80;;
71648;SDS011;59492;45.638;11.714;2023-03-07T03:11:03;15.80;;;12.40;;
71648;SDS011;59492;45.638;11.714;2023-03-07T03:13:29;14.20;;;12.10;;
71648;SDS011;59492;45.638;11.714;2023-03-07T03:15:55;14.90;;;12.10;;
71648;SDS011;59492;45.638;11.714;2023-03-07T03:18:21;17.10;;;12.40;;
71648;SDS011;59492;45.638;11.714;2023-03-07T03:20:48;15.80;;;13.30;;
71648;SDS011;59492;45.638;11.714;2023-03-07T03:23:13;15.90;;;13.10;;
71648;SDS011;59492;45.638;11.714;2023-03-07T03:25:39;15.30;;;13.00;;
71648;SDS011;59492;45.638;11.714;2023-03-07T03:28:05;14.10;;;11.50;;
71648;SDS011;59492;45.638;11.714;2023-03-07T03:30:30;13.70;;;11.90;;
71648;SDS011;59492;45.638;11.714;2023-03-07T03:33:00;15.90;;;12.40;;
71648;SDS011;59492;45.638;11.714;2023-03-07T03:35:27;18.20;;;13.10;;
71648;SDS011;59492;45.638;11.714;2023-03-07T03:37:53;14.50;;;12.20;;
71648;SDS011;59492;45.638;11.714;2023-03-07T03:40:18;16.90;;;13.10;;
71648;SDS011;59492;45.638;11.714;2023-03-07T03:42:45;16.60;;;13.00;;
71648;SDS011;59492;45.638;11.714;2023-03-07T03:45:12;15.10;;;12.50;;
71648;SDS011;59492;45.638;11.714;2023-03-07T03:47:39;15.00;;;12.70;;
71648;SDS011;59492;45.638;11.714;2023-03-07T03:50:05;14.40;;;12.60;;
71648;SDS011;59492;45.638;11.714;2023-03-07T03:52:31;14.90;;;12.50;;
71648;SDS011;59492;45.638;11.714;2023-03-07T03:54:59;16.00;;;12.90;;
71648;SDS011;59492;45.638;11.714;2023-03-07T03:57:25;16.20;;;12.30;;
71648;SDS011;59492;45.638;11.714;2023-03-07T03:59:50;16.50;;;12.20;;
71648;SDS011;59492;45.638;11.714;2023-03-07T04:02:16;16.60;;;12.50;;
71648;SDS011;59492;45.638;11.714;2023-03-07T04:04:41;14.50;;;12.00;;
71648;SDS011;59492;45.638;11.714;2023-03-07T04:07:07;14.90;;;12.30;;
71648;SDS011;59492;45.638;11.714;2023-03-07T04:09:32;16.90;;;12.70;;
71648;SDS011;59492;45.638;11.714;2023-03-07T04:11:58;14.70;;;12.30;;
71648;SDS011;59492;45.638;11.714;2023-03-07T04:14:23;15.70;;;12.50;;
71648;SDS011;59492;45.638;11.714;2023-03-07T04:16:49;15.50;;;12.40;;
71648;SDS011;59492;45.638;11.714;2023-03-07T04:19:14;16.10;;;12.40;;
71648;SDS011;59492;45.638;11.714;2023-03-07T04:21:40;16.70;;;12.40;;
71648;SDS011;59492;45.638;11.714;2023-03-07T04:24:06;14.60;;;11.80;;
71648;SDS011;59492;45.638;11.714;2023-03-07T04:26:32;18.70;;;12.00;;
71648;SDS011;59492;45.638;11.714;2023-03-07T04:28:58;16.20;;;12.20;;
71648;SDS011;59492;45.638;11.714;2023-03-07T04:31:25;15.30;;;12.50;;
71648;SDS011;59492;45.638;11.714;2023-03-07T04:33:57;13.70;;;11.20;;
71648;SDS011;59492;45.638;11.714;2023-03-07T04:36:24;13.70;;;11.30;;
71648;SDS011;59492;45.638;11.714;2023-03-07T04:38:50;15.00;;;11.90;;
71648;SDS011;59492;45.638;11.714;2023-03-07T04:41:17;14.10;;;11.80;;
71648;SDS011;59492;45.638;11.714;2023-03-07T04:43:44;14.30;;;11.20;;
71648;SDS011;59492;45.638;11.714;2023-03-07T04:46:11;17.40;;;12.50;;
71648;SDS011;59492;45.638;11.714;2023-03-07T04:48:38;15.90;;;11.80;;
71648;SDS011;59492;45.638;11.714;2023-03-07T04:51:03;14.50;;;12.40;;
71648;SDS011;59492;45.638;11.714;2023-03-07T04:53:29;14.00;;;11.80;;
71648;SDS011;59492;45.638;11.714;2023-03-07T04:55:59;15.70;;;12.70;;
71648;SDS011;59492;45.638;11.714;2023-03-07T04:58:27;14.60;;;11.50;;
71648;SDS011;59492;45.638;11.714;2023-03-07T05:00:53;13.20;;;11.40;;
71648;SDS011;59492;45.638;11.714;2023-03-07T05:03:21;13.90;;;11.30;;
71648;SDS011;59492;45.638;11.714;2023-03-07T05:05:47;14.90;;;12.10;;
71648;SDS011;59492;45.638;11.714;2023-03-07T05:08:14;15.20;;;12.40;;
71648;SDS011;59492;45.638;11.714;2023-03-07T05:10:39;14.40;;;11.70;;
71648;SDS011;59492;45.638;11.714;2023-03-07T05:13:06;14.20;;;11.70;;
71648;SDS011;59492;45.638;11.714;2023-03-07T05:15:32;13.90;;;11.60;;
71648;SDS011;59492;45.638;11.714;2023-03-07T05:17:58;15.30;;;12.00;;
71648;SDS011;59492;45.638;11.714;2023-03-07T05:20:24;13.70;;;12.10;;
71648;SDS011;59492;45.638;11.714;2023-03-07T05:22:50;17.40;;;12.10;;
71648;SDS011;59492;45.638;11.714;2023-03-07T05:25:15;16.20;;;11.90;;
71648;SDS011;59492;45.638;11.714;2023-03-07T05:27:41;14.60;;;12.20;;
71648;SDS011;59492;45.638;11.714;2023-03-07T05:30:07;14.50;;;12.50;;
71648;SDS011;59492;45.638;11.714;2023-03-07T05:32:34;17.20;;;12.20;;
71648;SDS011;59492;45.638;11.714;2023-03-07T05:34:59;14.10;;;11.80;;
71648;SDS011;59492;45.638;11.714;2023-03-07T05:37:25;14.30;;;12.20;;
71648;SDS011;59492;45.638;11.714;2023-03-07T05:39:51;14.80;;;12.10;;
71648;SDS011;59492;45.638;11.714;2023-03-07T05:42:16;15.60;;;12.40;;
71648;SDS011;59492;45.638;11.714;2023-03-07T05:44:42;13.40;;;11.90;;
71648;SDS011;59492;45.638;11.714;2023-03-07T05:47:07;13.40;;;11.90;;
71648;SDS011;59492;45.638;11.714;2023-03-07T05:49:33;13.90;;;11.40;;
71648;SDS011;59492;45.638;11.714;2023-03-07T05:51:59;15.10;;;12.10;;
71648;SDS011;59492;45.638;11.714;2023-03-07T05:54:24;15.20;;;12.00;;
71648;SDS011;59492;45.638;11.714;2023-03-07T05:56:50;13.70;;;11.40;;
71648;SDS011;59492;45.638;11.714;2023-03-07T05:59:16;14.60;;;12.10;;
71648;SDS011;59492;45.638;11.714;2023-03-07T06:01:42;14.50;;;11.90;;
71648;SDS011;59492;45.638;11.714;2023-03-07T06:04:07;14.20;;;11.50;;
71648;SDS011;59492;45.638;11.714;2023-03-07T06:06:34;14.00;;;11.80;;
71648;SDS011;59492;45.638;11.714;2023-03-07T06:08:59;14.80;;;11.80;;
71648;SDS011;59492;45.638;11.714;2023-03-07T06:11:25;14.50;;;11.80;;
71648;SDS011;59492;45.638;11.714;2023-03-07T06:13:50;15.60;;;11.90;;
71648;SDS011;59492;45.638;11.714;2023-03-07T06:16:16;17.50;;;11.30;;
71648;SDS011;59492;45.638;11.714;2023-03-07T06:18:42;12.90;;;11.10;;
71648;SDS011;59492;45.638;11.714;2023-03-07T06:21:07;12.10;;;10.70;;
71648;SDS011;59492;45.638;11.714;2023-03-07T06:23:37;12.50;;;11.00;;
71648;SDS011;59492;45.638;11.714;2023-03-07T06:26:03;12.00;;;10.70;;
71648;SDS011;59492;45.638;11.714;2023-03-07T06:28:29;14.70;;;11.70;;
71648;SDS011;59492;45.638;11.714;2023-03-07T06:30:55;13.50;;;11.40;;
71648;SDS011;59492;45.638;11.714;2023-03-07T06:33:20;14.80;;;12.10;;
71648;SDS011;59492;45.638;11.714;2023-03-07T06:35:46;14.20;;;11.40;;
71648;SDS011;59492;45.638;11.714;2023-03-07T06:38:12;12.40;;;10.90;;
71648;SDS011;59492;45.638;11.714;2023-03-07T06:40:39;15.00;;;11.50;;
71648;SDS011;59492;45.638;11.714;2023-03-07T06:43:06;13.00;;;11.20;;
71648;SDS011;59492;45.638;11.714;2023-03-07T06:45:35;14.30;;;11.70;;
71648;SDS011;59492;45.638;11.714;2023-03-07T06:48:01;14.30;;;11.70;;
71648;SDS011;59492;45.638;11.714;2023-03-07T06:50:27;14.40;;;11.90;;
71648;SDS011;59492;45.638;11.714;2023-03-07T06:52:53;16.10;;;11.50;;
71648;SDS011;59492;45.638;11.714;2023-03-07T06:55:18;14.20;;;10.40;;
71648;SDS011;59492;45.638;11.714;2023-03-07T06:57:48;14.80;;;11.20;;
71648;SDS011;59492;45.638;11.714;2023-03-07T07:00:17;15.90;;;11.30;;
71648;SDS011;59492;45.638;11.714;2023-03-07T07:02:43;13.80;;;11.80;;
71648;SDS011;59492;45.638;11.714;2023-03-07T07:05:08;16.70;;;12.00;;
71648;SDS011;59492;45.638;11.714;2023-03-07T07:07:34;14.20;;;11.60;;
71648;SDS011;59492;45.638;11.714;2023-03-07T07:10:01;14.90;;;12.10;;
71648;SDS011;59492;45.638;11.714;2023-03-07T07:12:27;13.60;;;11.70;;
71648;SDS011;59492;45.638;11.714;2023-03-07T07:15:10;15.20;;;12.20;;
71648;SDS011;59492;45.638;11.714;2023-03-07T07:17:37;13.60;;;11.70;;
71648;SDS011;59492;45.638;11.714;2023-03-07T07:20:04;15.80;;;11.80;;
71648;SDS011;59492;45.638;11.714;2023-03-07T07:22:32;14.40;;;12.10;;
71648;SDS011;59492;45.638;11.714;2023-03-07T07:24:58;15.90;;;11.80;;
71648;SDS011;59492;45.638;11.714;2023-03-07T07:27:24;15.30;;;12.20;;
71648;SDS011;59492;45.638;11.714;2023-03-07T07:29:50;13.70;;;11.60;;
71648;SDS011;59492;45.638;11.714;2023-03-07T07:32:16;15.30;;;12.30;;
71648;SDS011;59492;45.638;11.714;2023-03-07T07:34:42;16.50;;;12.50;;
71648;SDS011;59492;45.638;11.714;2023-03-07T07:37:07;14.50;;;11.60;;
71648;SDS011;59492;45.638;11.714;2023-03-07T07:39:34;15.10;;;12.10;;
71648;SDS011;59492;45.638;11.714;2023-03-07T07:42:04;18.70;;;11.60;;
71648;SDS011;59492;45.638;11.714;2023-03-07T07:44:37;16.10;;;11.70;;
71648;SDS011;59492;45.638;11.714;2023-03-07T07:47:02;14.50;;;11.50;;
71648;SDS011;59492;45.638;11.714;2023-03-07T07:49:28;13.60;;;11.10;;
71648;SDS011;59492;45.638;11.714;2023-03-07T07:51:54;14.10;;;11.60;;
71648;SDS011;59492;45.638;11.714;2023-03-07T07:54:20;13.30;;;11.40;;
71648;SDS011;59492;45.638;11.714;2023-03-07T07:56:45;13.90;;;11.10;;
71648;SDS011;59492;45.638;11.714;2023-03-07T07:59:11;14.10;;;11.50;;
71648;SDS011;59492;45.638;11.714;2023-03-07T08:01:37;13.40;;;11.40;;
71648;SDS011;59492;45.638;11.714;2023-03-07T08:04:03;12.60;;;10.70;;
71648;SDS011;59492;45.638;11.714;2023-03-07T08:06:29;12.60;;;10.60;;
71648;SDS011;59492;45.638;11.714;2023-03-07T08:08:55;13.20;;;10.70;;
71648;SDS011;59492;45.638;11.714;2023-03-07T08:11:22;13.90;;;10.50;;
71648;SDS011;59492;45.638;11.714;2023-03-07T08:13:48;12.10;;;10.40;;
71648;SDS011;59492;45.638;11.714;2023-03-07T08:16:15;14.40;;;10.50;;
71648;SDS011;59492;45.638;11.714;2023-03-07T08:18:50;14.60;;;10.40;;
71648;SDS011;59492;45.638;11.714;2023-03-07T08:21:18;12.10;;;10.80;;
71648;SDS011;59492;45.638;11.714;2023-03-07T08:23:45;12.50;;;10.20;;
71648;SDS011;59492;45.638;11.714;2023-03-07T08:26:11;13.50;;;10.60;;
71648;SDS011;59492;45.638;11.714;2023-03-07T08:28:37;12.00;;;10.60;;
71648;SDS011;59492;45.638;11.714;2023-03-07T08:31:11;13.90;;;10.60;;
71648;SDS011;59492;45.638;11.714;2023-03-07T08:33:41;13.10;;;10.40;;
71648;SDS011;59492;45.638;11.714;2023-03-07T08:36:08;12.30;;;9.80;;
71648;SDS011;59492;45.638;11.714;2023-03-07T08:38:34;11.10;;;9.70;;
71648;SDS011;59492;45.638;11.714;2023-03-07T08:41:00;12.40;;;10.00;;
71648;SDS011;59492;45.638;11.714;2023-03-07T08:43:28;12.40;;;9.90;;
71648;SDS011;59492;45.638;11.714;2023-03-07T08:45:55;12.70;;;9.80;;
71648;SDS011;59492;45.638;11.714;2023-03-07T08:48:22;11.50;;;9.80;;
71648;SDS011;59492;45.638;11.714;2023-03-07T08:50:50;11.00;;;9.50;;
71648;SDS011;59492;45.638;11.714;2023-03-07T08:53:17;10.10;;;9.10;;
71648;SDS011;59492;45.638;11.714;2023-03-07T08:55:44;11.70;;;9.90;;
71648;SDS011;59492;45.638;11.714;2023-03-07T08:58:10;11.10;;;9.50;;
71648;SDS011;59492;45.638;11.714;2023-03-07T09:00:36;12.10;;;9.50;;
71648;SDS011;59492;45.638;11.714;2023-03-07T09:03:03;9.90;;;8.70;;
71648;SDS011;59492;45.638;11.714;2023-03-07T09:05:29;12.80;;;9.10;;
71648;SDS011;59492;45.638;11.714;2023-03-07T09:07:55;10.10;;;8.70;;
71648;SDS011;59492;45.638;11.714;2023-03-07T09:10:22;10.80;;;9.40;;
71648;SDS011;59492;45.638;11.714;2023-03-07T09:12:49;10.70;;;9.50;;
71648;SDS011;59492;45.638;11.714;2023-03-07T09:15:19;11.60;;;9.50;;
71648;SDS011;59492;45.638;11.714;2023-03-07T09:17:46;11.80;;;8.80;;
71648;SDS011;59492;45.638;11.714;2023-03-07T09:20:12;10.80;;;8.90;;
71648;SDS011;59492;45.638;11.714;2023-03-07T09:22:38;11.20;;;9.20;;
71648;SDS011;59492;45.638;11.714;2023-03-07T09:25:04;10.50;;;8.80;;
71648;SDS011;59492;45.638;11.714;2023-03-07T09:27:30;10.70;;;9.00;;
71648;SDS011;59492;45.638;11.714;2023-03-07T09:29:56;15.90;;;10.30;;
71648;SDS011;59492;45.638;11.714;2023-03-07T09:32:22;11.90;;;9.80;;
71648;SDS011;59492;45.638;11.714;2023-03-07T09:34:48;11.60;;;9.30;;
71648;SDS011;59492;45.638;11.714;2023-03-07T09:37:16;9.90;;;8.60;;
71648;SDS011;59492;45.638;11.714;2023-03-07T09:39:43;12.00;;;9.00;;
71648;SDS011;59492;45.638;11.714;2023-03-07T09:45:02;10.00;;;8.90;;
71648;SDS011;59492;45.638;11.714;2023-03-07T09:50:28;11.20;;;9.20;;
71648;SDS011;59492;45.638;11.714;2023-03-07T09:53:05;11.40;;;8.80;;
71648;SDS011;59492;45.638;11.714;2023-03-07T09:55:43;14.30;;;9.30;;
71648;SDS011;59492;45.638;11.714;2023-03-07T09:58:13;9.80;;;8.70;;
71648;SDS011;59492;45.638;11.714;2023-03-07T10:00:42;13.60;;;9.60;;
71648;SDS011;59492;45.638;11.714;2023-03-07T10:05:49;11.50;;;9.30;;
71648;SDS011;59492;45.638;11.714;2023-03-07T10:08:31;13.60;;;9.90;;
71648;SDS011;59492;45.638;11.714;2023-03-07T10:13:39;10.60;;;9.10;;
71648;SDS011;59492;45.638;11.714;2023-03-07T10:16:30;11.50;;;8.60;;
71648;SDS011;59492;45.638;11.714;2023-03-07T10:19:09;10.70;;;9.50;;
71648;SDS011;59492;45.638;11.714;2023-03-07T10:27:31;11.70;;;9.20;;
71648;SDS011;59492;45.638;11.714;2023-03-07T10:29:58;9.30;;;8.00;;
71648;SDS011;59492;45.638;11.714;2023-03-07T10:32:38;12.20;;;8.70;;
71648;SDS011;59492;45.638;11.714;2023-03-07T10:37:47;12.80;;;9.20;;
71648;SDS011;59492;45.638;11.714;2023-03-07T10:40:38;11.80;;;9.40;;
71648;SDS011;59492;45.638;11.714;2023-03-07T10:43:06;12.70;;;9.30;;
71648;SDS011;59492;45.638;11.714;2023-03-07T10:45:43;14.00;;;9.70;;
71648;SDS011;59492;45.638;11.714;2023-03-07T10:48:14;13.70;;;8.70;;
71648;SDS011;59492;45.638;11.714;2023-03-07T10:50:45;9.70;;;8.40;;
71648;SDS011;59492;45.638;11.714;2023-03-07T10:53:22;11.80;;;8.70;;
71648;SDS011;59492;45.638;11.714;2023-03-07T10:55:50;10.90;;;9.20;;
71648;SDS011;59492;45.638;11.714;2023-03-07T10:58:20;11.70;;;9.50;;
71648;SDS011;59492;45.638;11.714;2023-03-07T11:06:05;9.90;;;8.40;;
71648;SDS011;59492;45.638;11.714;2023-03-07T11:08:32;9.50;;;8.50;;
71648;SDS011;59492;45.638;11.714;2023-03-07T11:11:03;10.90;;;9.20;;
71648;SDS011;59492;45.638;11.714;2023-03-07T11:13:29;10.90;;;8.20;;
71648;SDS011;59492;45.638;11.714;2023-03-07T11:16:19;10.80;;;8.70;;
71648;SDS011;59492;45.638;11.714;2023-03-07T11:18:45;9.20;;;8.10;;
71648;SDS011;59492;45.638;11.714;2023-03-07T11:24:22;10.30;;;8.60;;
71648;SDS011;59492;45.638;11.714;2023-03-07T11:26:57;10.90;;;9.10;;
71648;SDS011;59492;45.638;11.714;2023-03-07T11:29:24;9.90;;;8.40;;
71648;SDS011;59492;45.638;11.714;2023-03-07T11:32:12;10.90;;;9.20;;
71648;SDS011;59492;45.638;11.714;2023-03-07T11:34:49;11.30;;;8.90;;
71648;SDS011;59492;45.638;11.714;2023-03-07T11:40:30;12.80;;;9.80;;
71648;SDS011;59492;45.638;11.714;2023-03-07T11:45:48;12.50;;;10.20;;
71648;SDS011;59492;45.638;11.714;2023-03-07T11:48:38;10.50;;;9.30;;
71648;SDS011;59492;45.638;11.714;2023-03-07T11:51:23;11.30;;;8.80;;
71648;SDS011;59492;45.638;11.714;2023-03-07T11:54:13;9.60;;;8.40;;
71648;SDS011;59492;45.638;11.714;2023-03-07T11:56:45;12.30;;;9.10;;
71648;SDS011;59492;45.638;11.714;2023-03-07T12:02:25;12.50;;;8.80;;
71648;SDS011;59492;45.638;11.714;2023-03-07T12:05:08;11.40;;;8.80;;
71648;SDS011;59492;45.638;11.714;2023-03-07T12:13:55;11.70;;;9.50;;
71648;SDS011;59492;45.638;11.714;2023-03-07T12:19:38;10.50;;;8.50;;
71648;SDS011;59492;45.638;11.714;2023-03-07T12:22:32;10.70;;;9.10;;
71648;SDS011;59492;45.638;11.714;2023-03-07T12:33:28;12.90;;;9.10;;
71648;SDS011;59492;45.638;11.714;2023-03-07T12:36:00;12.10;;;8.50;;
71648;SDS011;59492;45.638;11.714;2023-03-07T12:44:16;14.20;;;9.00;;
71648;SDS011;59492;45.638;11.714;2023-03-07T12:47:02;13.80;;;8.90;;
71648;SDS011;59492;45.638;11.714;2023-03-07T12:52:21;11.90;;;8.40;;
71648;SDS011;59492;45.638;11.714;2023-03-07T12:54:57;10.90;;;8.70;;
71648;SDS011;59492;45.638;11.714;2023-03-07T12:57:26;14.90;;;9.70;;
71648;SDS011;59492;45.638;11.714;2023-03-07T12:59:58;12.80;;;8.60;;
71648;SDS011;59492;45.638;11.714;2023-03-07T13:02:38;13.00;;;8.60;;
71648;SDS011;59492;45.638;11.714;2023-03-07T13:05:27;12.20;;;8.20;;
71648;SDS011;59492;45.638;11.714;2023-03-07T13:07:54;11.10;;;9.10;;
71648;SDS011;59492;45.638;11.714;2023-03-07T13:10:21;15.60;;;8.10;;
71648;SDS011;59492;45.638;11.714;2023-03-07T13:12:49;13.60;;;9.80;;
71648;SDS011;59492;45.638;11.714;2023-03-07T13:27:55;9.70;;;8.00;;
71648;SDS011;59492;45.638;11.714;2023-03-07T13:40:22;12.00;;;8.40;;
71648;SDS011;59492;45.638;11.714;2023-03-07T13:43:08;10.20;;;7.50;;
71648;SDS011;59492;45.638;11.714;2023-03-07T13:53:13;9.20;;;7.30;;
71648;SDS011;59492;45.638;11.714;2023-03-07T13:55:50;17.00;;;7.20;;
71648;SDS011;59492;45.638;11.714;2023-03-07T13:58:44;9.80;;;7.10;;
71648;SDS011;59492;45.638;11.714;2023-03-07T14:01:20;9.80;;;7.00;;
71648;SDS011;59492;45.638;11.714;2023-03-07T14:03:52;11.10;;;6.90;;
71648;SDS011;59492;45.638;11.714;2023-03-07T14:06:44;11.70;;;6.50;;
71648;SDS011;59492;45.638;11.714;2023-03-07T14:09:11;10.10;;;7.00;;
71648;SDS011;59492;45.638;11.714;2023-03-07T14:14:34;12.40;;;6.40;;
71648;SDS011;59492;45.638;11.714;2023-03-07T14:17:11;9.30;;;7.00;;
71648;SDS011;59492;45.638;11.714;2023-03-07T14:27:37;7.80;;;6.30;;
71648;SDS011;59492;45.638;11.714;2023-03-07T14:30:16;8.50;;;6.40;;
71648;SDS011;59492;45.638;11.714;2023-03-07T14:32:42;9.00;;;7.00;;
71648;SDS011;59492;45.638;11.714;2023-03-07T14:35:08;8.20;;;6.80;;
71648;SDS011;59492;45.638;11.714;2023-03-07T14:37:39;8.90;;;6.60;;
71648;SDS011;59492;45.638;11.714;2023-03-07T14:40:11;10.30;;;7.20;;
71648;SDS011;59492;45.638;11.714;2023-03-07T14:43:03;12.00;;;7.20;;
71648;SDS011;59492;45.638;11.714;2023-03-07T14:51:42;12.30;;;6.90;;
71648;SDS011;59492;45.638;11.714;2023-03-07T14:54:16;9.40;;;6.60;;
71648;SDS011;59492;45.638;11.714;2023-03-07T14:56:49;10.00;;;6.60;;
71648;SDS011;59492;45.638;11.714;2023-03-07T14:59:17;11.50;;;7.10;;
71648;SDS011;59492;45.638;11.714;2023-03-07T15:01:43;8.40;;;6.10;;
71648;SDS011;59492;45.638;11.714;2023-03-07T15:04:42;9.90;;;6.30;;
71648;SDS011;59492;45.638;11.714;2023-03-07T15:09:29;7.30;;;6.10;;
71648;SDS011;59492;45.638;11.714;2023-03-07T15:14:32;8.20;;;6.30;;
71648;SDS011;59492;45.638;11.714;2023-03-07T15:17:03;12.90;;;6.90;;
71648;SDS011;59492;45.638;11.714;2023-03-07T15:19:37;12.80;;;7.10;;
71648;SDS011;59492;45.638;11.714;2023-03-07T15:22:17;10.90;;;6.70;;
71648;SDS011;59492;45.638;11.714;2023-03-07T15:24:48;11.40;;;6.70;;
71648;SDS011;59492;45.638;11.714;2023-03-07T15:27:17;10.10;;;7.10;;
71648;SDS011;59492;45.638;11.714;2023-03-07T15:29:52;11.50;;;7.30;;
71648;SDS011;59492;45.638;11.714;2023-03-07T15:32:28;10.50;;;7.00;;
71648;SDS011;59492;45.638;11.714;2023-03-07T15:35:02;10.80;;;7.40;;
71648;SDS011;59492;45.638;11.714;2023-03-07T15:43:13;11.10;;;6.90;;
71648;SDS011;59492;45.638;11.714;2023-03-07T15:46:35;16.90;;;8.80;;
71648;SDS011;59492;45.638;11.714;2023-03-07T15:48:50;11.10;;;8.00;;
71648;SDS011;59492;45.638;11.714;2023-03-07T15:51:18;11.10;;;7.80;;
71648;SDS011;59492;45.638;11.714;2023-03-07T15:53:53;13.40;;;7.70;;
71648;SDS011;59492;45.638;11.714;2023-03-07T16:00:00;18.80;;;8.00;;
71648;SDS011;59492;45.638;11.714;2023-03-07T16:05:04;16.40;;;7.80;;
71648;SDS011;59492;45.638;11.714;2023-03-07T16:07:43;16.30;;;7.90;;
71648;SDS011;59492;45.638;11.714;2023-03-07T16:10:08;39.30;;;9.10;;
71648;SDS011;59492;45.638;11.714;2023-03-07T16:12:34;13.30;;;7.90;;
71648;SDS011;59492;45.638;11.714;2023-03-07T16:15:03;12.60;;;7.60;;
71648;SDS011;59492;45.638;11.714;2023-03-07T16:17:33;16.00;;;7.30;;
71648;SDS011;59492;45.638;11.714;2023-03-07T16:20:01;13.40;;;7.80;;
71648;SDS011;59492;45.638;11.714;2023-03-07T16:22:28;11.70;;;7.80;;
71648;SDS011;59492;45.638;11.714;2023-03-07T16:24:55;11.20;;;7.50;;
71648;SDS011;59492;45.638;11.714;2023-03-07T16:27:21;16.70;;;8.00;;
71648;SDS011;59492;45.638;11.714;2023-03-07T16:29:49;11.30;;;7.10;;
71648;SDS011;59492;45.638;11.714;2023-03-07T16:32:18;10.10;;;7.10;;
71648;SDS011;59492;45.638;11.714;2023-03-07T16:34:46;14.70;;;8.40;;
71648;SDS011;59492;45.638;11.714;2023-03-07T16:37:15;16.50;;;7.00;;
71648;SDS011;59492;45.638;11.714;2023-03-07T16:39:40;11.40;;;7.30;;
71648;SDS011;59492;45.638;11.714;2023-03-07T16:42:06;13.70;;;7.30;;
71648;SDS011;59492;45.638;11.714;2023-03-07T16:44:40;12.10;;;7.40;;
71648;SDS011;59492;45.638;11.714;2023-03-07T16:47:12;12.60;;;7.50;;
71648;SDS011;59492;45.638;11.714;2023-03-07T16:49:39;14.40;;;7.90;;